Menu Close Menu
Station Historical Data
Daily Summary for October 11, 2017 Units:  Metric    English   Both
« Previous Day
Next Day »
Daily Weekly Monthly Yearly Custom
  High: Low: Average:
Temperature: 28.6 °C 19.5 °C 23.3 °C
Dew Point: 22.9 °C 18.3 °C 20.7 °C
Humidity: 94% 67% 86%
Wind Speed: 19.3km/h 0km/h 6.9km/h
Wind Gust: 19.3km/h - -
Wind- - SW
Pressure: 1018.8 hPa 1016.8 hPa -
Precipitation: 0.25 mm    
Historical Graphs
 
 
Tabular Data for October 11, 2017
Time Temperature Dew Point Pressure Wind Wind Speed Wind Gust Humidity Rainfall Rate (Hourly) solar Conditions
00:00 20.6 °C 19.3 °C 1018.2 hPa SW 4.8 km/h 4.8 km/h 92% 0 mm WeatherDisplay:10.37 W/m2 SCT
00:05 20.6 °C 19.2 °C 1018.2 hPa SW 4.8 km/h 4.8 km/h 92% 0 mm WeatherDisplay:10.37 W/m2 SCT
00:10 20.6 °C 19.2 °C 1018.2 hPa SW 4.8 km/h 4.8 km/h 92% 0 mm WeatherDisplay:10.37 W/m2 SCT
00:15 20.5 °C 19.2 °C 1018.2 hPa SW 4.8 km/h 4.8 km/h 92% 0 mm WeatherDisplay:10.37 W/m2 SCT
00:20 20.5 °C 19.2 °C 1018.2 hPa SW 4.8 km/h 4.8 km/h 92% 0 mm WeatherDisplay:10.37 W/m2 SCT
00:25 20.4 °C 19.1 °C 1018.2 hPa SW 4.8 km/h 4.8 km/h 92% 0 mm WeatherDisplay:10.37 W/m2 SCT
00:30 20.4 °C 19.1 °C 1018.2 hPa SW 4.8 km/h 4.8 km/h 92% 0 mm WeatherDisplay:10.37 W/m2 SCT
00:40 20.4 °C 19.1 °C 1017.8 hPa SW 4.8 km/h 4.8 km/h 92% 0 mm WeatherDisplay:10.37 W/m2 SCT
00:45 20.3 °C 19 °C 1018.2 hPa SW 4.8 km/h 4.8 km/h 92% 0 mm WeatherDisplay:10.37 W/m2 SCT
00:50 20.3 °C 18.9 °C 1018.2 hPa SW 4.8 km/h 4.8 km/h 92% 0 mm WeatherDisplay:10.37 W/m2 SCT
00:55 20.3 °C 19.2 °C 1018.2 hPa SW 4.8 km/h 4.8 km/h 93% 0 mm WeatherDisplay:10.37 W/m2 SCT
01:00 20.3 °C 19.1 °C 1018.2 hPa SW 4.8 km/h 4.8 km/h 93% 0 mm WeatherDisplay:10.37 W/m2 SCT
01:10 20.2 °C 18.8 °C 1018.2 hPa SW 4.8 km/h 4.8 km/h 92% 0 mm WeatherDisplay:10.37 W/m2 SCT
01:15 20.2 °C 19.1 °C 1018.2 hPa SW 4.8 km/h 4.8 km/h 93% 0 mm WeatherDisplay:10.37 W/m2 FEW
01:20 20.3 °C 19.1 °C 1018.2 hPa SW 4.8 km/h 4.8 km/h 93% 0 mm WeatherDisplay:10.37 W/m2 FEW
01:25 20.3 °C 19.1 °C 1018.2 hPa SW 4.8 km/h 4.8 km/h 93% 0 mm WeatherDisplay:10.37 W/m2 FEW
01:30 20.3 °C 19.1 °C 1018.2 hPa SW 4.8 km/h 4.8 km/h 93% 0 mm WeatherDisplay:10.37 W/m2 FEW
01:40 20.2 °C 19 °C 1017.8 hPa SW 4.8 km/h 4.8 km/h 93% 0 mm WeatherDisplay:10.37 W/m2 FEW
01:45 20.1 °C 18.9 °C 1017.8 hPa SW 4.8 km/h 4.8 km/h 93% 0 mm WeatherDisplay:10.37 W/m2 FEW
01:50 19.9 °C 18.6 °C 1018.2 hPa SW 4.8 km/h 4.8 km/h 92% 0 mm WeatherDisplay:10.37 W/m2 FEW
01:55 19.8 °C 18.7 °C 1018.2 hPa SW 4.8 km/h 4.8 km/h 93% 0 mm WeatherDisplay:10.37 W/m2 FEW
02:00 19.9 °C 18.8 °C 1018.2 hPa SW 4.8 km/h 4.8 km/h 93% 0 mm WeatherDisplay:10.37 W/m2 FEW
02:05 20.1 °C 18.9 °C 1018.2 hPa SW 4.8 km/h 4.8 km/h 93% 0 mm WeatherDisplay:10.37 W/m2 FEW
02:10 20.1 °C 18.9 °C 1018.2 hPa SW 4.8 km/h 4.8 km/h 93% 0 mm WeatherDisplay:10.37 W/m2 FEW
02:20 20.1 °C 18.9 °C 1018.2 hPa SW 4.8 km/h 4.8 km/h 93% 0 mm WeatherDisplay:10.37 W/m2 FEW
02:25 20.1 °C 18.9 °C 1018.2 hPa SW 4.8 km/h 4.8 km/h 93% 0 mm WeatherDisplay:10.37 W/m2 FEW
02:30 20 °C 18.8 °C 1018.2 hPa SW 4.8 km/h 4.8 km/h 93% 0 mm WeatherDisplay:10.37 W/m2 FEW
02:35 19.9 °C 18.8 °C 1017.8 hPa SW 4.8 km/h 4.8 km/h 93% 0 mm WeatherDisplay:10.37 W/m2 FEW
02:45 19.9 °C 18.7 °C 1017.8 hPa SW 4.8 km/h 4.8 km/h 93% 0 mm WeatherDisplay:10.37 W/m2 FEW
02:55 19.9 °C 18.7 °C 1017.8 hPa SW 4.8 km/h 4.8 km/h 93% 0 mm WeatherDisplay:10.37 W/m2 FEW
03:00 19.9 °C 18.7 °C 1017.8 hPa SW 4.8 km/h 4.8 km/h 93% 0 mm WeatherDisplay:10.37 W/m2 FEW
03:05 19.9 °C 18.8 °C 1017.8 hPa SW 4.8 km/h 4.8 km/h 93% 0 mm WeatherDisplay:10.37 W/m2 FEW
03:10 19.9 °C 18.8 °C 1017.8 hPa SW 4.8 km/h 4.8 km/h 93% 0 mm WeatherDisplay:10.37 W/m2 FEW
03:15 19.9 °C 18.8 °C 1017.8 hPa SW 4.8 km/h 4.8 km/h 93% 0 mm WeatherDisplay:10.37 W/m2 CLR
03:20 19.9 °C 18.8 °C 1017.8 hPa SW 4.8 km/h 4.8 km/h 93% 0 mm WeatherDisplay:10.37 W/m2 CLR
03:35 20.1 °C 19.1 °C 1017.5 hPa Calm     94% 0 mm WeatherDisplay:10.37 W/m2 CLR
03:40 20.1 °C 19.1 °C 1017.5 hPa Calm     94% 0 mm WeatherDisplay:10.37 W/m2 CLR
03:45 20.2 °C 19.2 °C 1017.5 hPa Calm     94% 0 mm WeatherDisplay:10.37 W/m2 CLR
03:55 19.9 °C 18.8 °C 1017.5 hPa Calm     93% 0 mm WeatherDisplay:10.37 W/m2 CLR
04:00 19.9 °C 18.7 °C 1017.5 hPa Calm     93% 0 mm WeatherDisplay:10.37 W/m2 CLR
04:05 20 °C 19 °C 1017.5 hPa Calm     94% 0 mm WeatherDisplay:10.37 W/m2 CLR
04:10 19.9 °C 18.8 °C 1017.5 hPa Calm     93% 0 mm WeatherDisplay:10.37 W/m2 CLR
04:15 19.8 °C 18.7 °C 1017.5 hPa Calm     93% 0 mm WeatherDisplay:10.37 W/m2 FEW
04:20 19.7 °C 18.6 °C 1017.5 hPa Calm     93% 0 mm WeatherDisplay:10.37 W/m2 FEW
04:25 19.6 °C 18.4 °C 1017.2 hPa Calm     93% 0 mm WeatherDisplay:10.37 W/m2 FEW
04:30 19.6 °C 18.4 °C 1017.5 hPa Calm     93% 0 mm WeatherDisplay:10.37 W/m2 FEW
04:35 19.5 °C 18.3 °C 1017.2 hPa Calm     93% 0 mm WeatherDisplay:10.37 W/m2 FEW
04:40 19.5 °C 18.3 °C 1017.2 hPa Calm     93% 0 mm WeatherDisplay:10.37 W/m2 FEW
04:45 19.6 °C 18.4 °C 1017.2 hPa Calm     93% 0 mm WeatherDisplay:10.37 W/m2 FEW
04:50 19.6 °C 18.6 °C 1017.2 hPa Calm     94% 0 mm WeatherDisplay:10.37 W/m2 FEW
04:55 19.7 °C 18.7 °C 1017.5 hPa Calm     94% 0 mm WeatherDisplay:10.37 W/m2 FEW
05:00 19.7 °C 18.7 °C 1017.5 hPa Calm     94% 0 mm WeatherDisplay:10.37 W/m2 FEW
05:05 19.8 °C 18.8 °C 1017.5 hPa Calm     94% 0 mm WeatherDisplay:10.37 W/m2 FEW
05:10 19.9 °C 18.9 °C 1017.5 hPa Calm     94% 0 mm WeatherDisplay:10.37 W/m2 FEW
05:15 19.9 °C 18.9 °C 1017.5 hPa Calm     94% 0 mm WeatherDisplay:10.37 W/m2 BKN
05:20 19.9 °C 18.9 °C 1017.5 hPa Calm     94% 0 mm WeatherDisplay:10.37 W/m2 BKN
05:25 19.9 °C 18.9 °C 1017.5 hPa Calm     94% 0 mm WeatherDisplay:10.37 W/m2 BKN
05:30 19.9 °C 18.9 °C 1017.5 hPa Calm     94% 0 mm WeatherDisplay:10.37 W/m2 BKN
05:40 20 °C 19 °C 1017.5 hPa Calm     94% 0 mm WeatherDisplay:10.37 W/m2 BKN
05:45 20 °C 19 °C 1017.8 hPa Calm     94% 0 mm WeatherDisplay:10.37 W/m2 BKN
05:50 20 °C 19 °C 1017.5 hPa Calm     94% 0 mm WeatherDisplay:10.37 W/m2 BKN
05:55 20.1 °C 19.1 °C 1017.8 hPa Calm     94% 0 mm WeatherDisplay:10.37 W/m2 BKN
06:00 20.1 °C 19.1 °C 1017.8 hPa Calm     94% 0 mm WeatherDisplay:10.37 W/m2 BKN
06:05 20.2 °C 19.2 °C 1017.8 hPa Calm     94% 0 mm WeatherDisplay:10.37 W/m2 BKN
06:10 20.2 °C 19.2 °C 1017.8 hPa Calm     94% 0 mm WeatherDisplay:10.37 W/m2 BKN
06:15 20.2 °C 19.2 °C 1017.8 hPa Calm     94% 0 mm WeatherDisplay:10.37 W/m2 -RA
06:20 20.2 °C 19.2 °C 1017.8 hPa Calm     94% 0 mm WeatherDisplay:10.37 W/m2 -RA
06:25 20.3 °C 19.3 °C 1017.8 hPa Calm     94% 0 mm WeatherDisplay:10.37 W/m2 -RA
06:30 20.3 °C 19.3 °C 1017.8 hPa Calm     94% 0 mm WeatherDisplay:10.37 W/m2 -RA
06:40 20.4 °C 19.4 °C 1017.8 hPa Calm     94% 0 mm WeatherDisplay:10.37 W/m2 -RA
06:45 20.4 °C 19.4 °C 1018.2 hPa ENE 4.8 km/h 4.8 km/h 94% 0 mm WeatherDisplay:10.37 W/m2 OVC
06:50 20.5 °C 19.5 °C 1018.2 hPa East 4.8 km/h 4.8 km/h 94% 0 mm WeatherDisplay:10.37 W/m2 OVC
06:55 20.5 °C 19.5 °C 1017.8 hPa East 4.8 km/h 4.8 km/h 94% 0 mm WeatherDisplay:10.37 W/m2 OVC
07:00 20.6 °C 19.6 °C 1017.8 hPa East 4.8 km/h 4.8 km/h 94% 0 mm WeatherDisplay:10.37 W/m2 OVC
07:05 20.6 °C 19.6 °C 1017.8 hPa East 4.8 km/h 4.8 km/h 94% 0 mm WeatherDisplay:10.37 W/m2 OVC
07:10 20.6 °C 19.6 °C 1017.8 hPa East 4.8 km/h 4.8 km/h 94% 0 mm WeatherDisplay:10.37 W/m2 OVC
07:15 20.6 °C 19.6 °C 1018.2 hPa East 4.8 km/h 4.8 km/h 94% 0 mm WeatherDisplay:10.37 W/m2 OVC
07:20 20.7 °C 19.7 °C 1017.8 hPa East 4.8 km/h 4.8 km/h 94% 0 mm WeatherDisplay:10.37 W/m2 OVC
07:25 20.7 °C 19.7 °C 1017.8 hPa East 4.8 km/h 4.8 km/h 94% 0.25 mm WeatherDisplay:10.37 W/m2 RA
07:30 20.7 °C 19.7 °C 1018.2 hPa East 4.8 km/h 4.8 km/h 94% 0 mm WeatherDisplay:10.37 W/m2 OVC
07:35 20.7 °C 19.7 °C 1018.2 hPa East 4.8 km/h 4.8 km/h 94% 0 mm WeatherDisplay:10.37 W/m2 OVC
07:40 20.7 °C 19.7 °C 1018.2 hPa East 4.8 km/h 4.8 km/h 94% 0 mm WeatherDisplay:10.37 W/m2 OVC
07:45 20.8 °C 19.8 °C 1018.2 hPa East 4.8 km/h 4.8 km/h 94% 0 mm WeatherDisplay:10.37 W/m2 OVC
07:50 20.8 °C 19.8 °C 1017.8 hPa East 4.8 km/h 4.8 km/h 94% 0 mm WeatherDisplay:10.37 W/m2 OVC
07:55 20.8 °C 19.8 °C 1017.8 hPa East 4.8 km/h 4.8 km/h 94% 0 mm WeatherDisplay:10.37 W/m2 OVC
08:00 20.8 °C 19.8 °C 1017.8 hPa East 4.8 km/h 4.8 km/h 94% 0 mm WeatherDisplay:10.37 W/m2 OVC
08:05 20.8 °C 19.8 °C 1017.8 hPa East 4.8 km/h 4.8 km/h 94% 0 mm WeatherDisplay:10.37 W/m2 OVC
08:10 20.8 °C 19.8 °C 1017.8 hPa East 4.8 km/h 4.8 km/h 94% 0 mm WeatherDisplay:10.37 W/m2 OVC
08:15 20.8 °C 19.8 °C 1018.2 hPa East 4.8 km/h 4.8 km/h 94% 0 mm WeatherDisplay:10.37 W/m2 BKN
08:20 20.8 °C 19.8 °C 1018.2 hPa East 4.8 km/h 4.8 km/h 94% 0 mm WeatherDisplay:10.37 W/m2 BKN
08:25 20.8 °C 19.8 °C 1018.2 hPa East 4.8 km/h 4.8 km/h 94% 0 mm WeatherDisplay:10.37 W/m2 BKN
08:30 20.8 °C 19.8 °C 1018.2 hPa East 4.8 km/h 4.8 km/h 94% 0 mm WeatherDisplay:10.37 W/m2 BKN
08:35 20.9 °C 19.9 °C 1018.2 hPa East 4.8 km/h 4.8 km/h 94% 0 mm WeatherDisplay:10.37 W/m2 BKN
08:40 20.9 °C 19.9 °C 1018.2 hPa East 4.8 km/h 4.8 km/h 94% 0 mm WeatherDisplay:10.37 W/m2 BKN
08:45 21 °C 20 °C 1018.2 hPa East 4.8 km/h 4.8 km/h 94% 0 mm WeatherDisplay:10.37 W/m2 BKN
08:50 21.1 °C 20.1 °C 1018.2 hPa East 4.8 km/h 4.8 km/h 94% 0 mm WeatherDisplay:10.37 W/m2 BKN
08:55 21.3 °C 20.3 °C 1018.2 hPa East 4.8 km/h 4.8 km/h 94% 0 mm WeatherDisplay:10.37 W/m2 BKN
09:00 21.4 °C 20.4 °C 1018.2 hPa East 4.8 km/h 4.8 km/h 94% 0 mm WeatherDisplay:10.37 W/m2 BKN
09:10 21.6 °C 20.6 °C 1018.5 hPa East 4.8 km/h 4.8 km/h 94% 0 mm WeatherDisplay:10.37 W/m2 BKN
09:15 21.6 °C 20.6 °C 1018.5 hPa ESE 1.6 km/h 4.8 km/h 94% 0 mm WeatherDisplay:10.37 W/m2 BKN
09:20 21.6 °C 20.6 °C 1018.5 hPa SE 1.6 km/h 1.6 km/h 94% 0 mm WeatherDisplay:10.37 W/m2 BKN
09:25 21.7 °C 20.7 °C 1018.5 hPa SE 1.6 km/h 1.6 km/h 94% 0 mm WeatherDisplay:10.37 W/m2 BKN
09:30 21.7 °C 20.7 °C 1018.5 hPa SE 1.6 km/h 1.6 km/h 94% 0 mm WeatherDisplay:10.37 W/m2 BKN
09:40 22.1 °C 21.1 °C 1018.5 hPa SE 1.6 km/h 1.6 km/h 94% 0 mm WeatherDisplay:10.37 W/m2 BKN
09:45 22.2 °C 21.2 °C 1018.5 hPa SE 1.6 km/h 1.6 km/h 94% 0 mm WeatherDisplay:10.37 W/m2 BKN
09:50 22.4 °C 21.4 °C 1018.5 hPa SE 1.6 km/h 1.6 km/h 94% 0 mm WeatherDisplay:10.37 W/m2 BKN
09:55 22.6 °C 21.6 °C 1018.5 hPa SE 1.6 km/h 1.6 km/h 94% 0 mm WeatherDisplay:10.37 W/m2 BKN
10:00 22.8 °C 21.8 °C 1018.5 hPa SE 1.6 km/h 1.6 km/h 94% 0 mm WeatherDisplay:10.37 W/m2 BKN
10:05 23.1 °C 22 °C 1018.5 hPa SE 1.6 km/h 1.6 km/h 94% 0 mm WeatherDisplay:10.37 W/m2 BKN
10:15 23.3 °C 22.3 °C 1018.5 hPa SSE 1.6 km/h 1.6 km/h 94% 0 mm WeatherDisplay:10.37 W/m2 BKN
10:20 23.5 °C 22.4 °C 1018.5 hPa South 1.6 km/h 1.6 km/h 94% 0 mm WeatherDisplay:10.37 W/m2 BKN
10:25 23.8 °C 22.6 °C 1018.5 hPa South 1.6 km/h 1.6 km/h 93% 0 mm WeatherDisplay:10.37 W/m2 BKN
10:30 24.1 °C 22.7 °C 1018.5 hPa South 1.6 km/h 1.6 km/h 92% 0 mm WeatherDisplay:10.37 W/m2 BKN
10:40 24.7 °C 22.7 °C 1018.5 hPa South 1.6 km/h 1.6 km/h 89% 0 mm WeatherDisplay:10.37 W/m2 BKN
10:45 25 °C 22.9 °C 1018.5 hPa South 1.6 km/h 1.6 km/h 88% 0 mm WeatherDisplay:10.37 W/m2 BKN
10:55 25.7 °C 22.9 °C 1018.5 hPa South 1.6 km/h 1.6 km/h 85% 0 mm WeatherDisplay:10.37 W/m2 BKN
11:00 25.6 °C 22.7 °C 1018.5 hPa South 1.6 km/h 1.6 km/h 84% 0 mm WeatherDisplay:10.37 W/m2 BKN
11:05 25.6 °C 22.7 °C 1018.5 hPa South 1.6 km/h 1.6 km/h 84% 0 mm WeatherDisplay:10.37 W/m2 BKN
11:10 25.6 °C 22.7 °C 1018.5 hPa South 1.6 km/h 1.6 km/h 84% 0 mm WeatherDisplay:10.37 W/m2 BKN
11:15 25.9 °C 22.8 °C 1018.5 hPa West 16.1 km/h 16.1 km/h 83% 0 mm WeatherDisplay:10.37 W/m2 BKN
11:20 25.9 °C 22.8 °C 1018.5 hPa West 16.1 km/h 16.1 km/h 83% 0 mm WeatherDisplay:10.37 W/m2 BKN
11:25 25.8 °C 22.7 °C 1018.5 hPa West 16.1 km/h 16.1 km/h 83% 0 mm WeatherDisplay:10.37 W/m2 BKN
11:30 25.5 °C 22.4 °C 1018.5 hPa West 16.1 km/h 16.1 km/h 83% 0 mm WeatherDisplay:10.37 W/m2 BKN
11:35 25.3 °C 22.4 °C 1018.8 hPa West 16.1 km/h 16.1 km/h 84% 0 mm WeatherDisplay:10.37 W/m2 BKN
11:40 25.4 °C 22.3 °C 1018.8 hPa West 16.1 km/h 16.1 km/h 83% 0 mm WeatherDisplay:10.37 W/m2 BKN
11:45 25.4 °C 22.1 °C 1018.8 hPa WNW 9.7 km/h 16.1 km/h 82% 0 mm WeatherDisplay:10.37 W/m2 BKN
11:50 25.6 °C 22.7 °C 1018.8 hPa WNW 9.7 km/h 9.7 km/h 84% 0 mm WeatherDisplay:10.37 W/m2 BKN
11:55 25.8 °C 22.7 °C 1018.8 hPa WNW 19.3 km/h 19.3 km/h 83% 0 mm WeatherDisplay:10.37 W/m2 BKN
12:00 26.2 °C 22.9 °C 1018.5 hPa WNW 19.3 km/h 19.3 km/h 82% 0 mm WeatherDisplay:10.37 W/m2 BKN
12:05 26.3 °C 22.6 °C 1018.5 hPa WNW 19.3 km/h 19.3 km/h 80% 0 mm WeatherDisplay:10.37 W/m2 BKN
12:10 26.3 °C 22.6 °C 1018.5 hPa WNW 19.3 km/h 19.3 km/h 80% 0 mm WeatherDisplay:10.37 W/m2 BKN
12:15 26.2 °C 22.5 °C 1018.5 hPa WNW 14.5 km/h 19.3 km/h 80% 0 mm WeatherDisplay:10.37 W/m2 BKN
12:20 26.2 °C 22.4 °C 1018.5 hPa WNW 14.5 km/h 14.5 km/h 80% 0 mm WeatherDisplay:10.37 W/m2 BKN
12:25 26.4 °C 22.6 °C 1018.5 hPa WNW 14.5 km/h 14.5 km/h 80% 0 mm WeatherDisplay:10.37 W/m2 BKN
12:35 26.8 °C 22.7 °C 1018.5 hPa WNW 14.5 km/h 14.5 km/h 78% 0 mm WeatherDisplay:10.37 W/m2 BKN
12:40 26.9 °C 22.8 °C 1018.5 hPa WNW 14.5 km/h 14.5 km/h 78% 0 mm WeatherDisplay:10.37 W/m2 BKN
12:45 26.9 °C 22.6 °C 1018.5 hPa WNW 14.5 km/h 14.5 km/h 77% 0 mm WeatherDisplay:10.37 W/m2 BKN
12:50 27 °C 22.6 °C 1018.5 hPa WNW 14.5 km/h 14.5 km/h 77% 0 mm WeatherDisplay:10.37 W/m2 BKN
12:55 27.1 °C 22.7 °C 1018.5 hPa WNW 14.5 km/h 14.5 km/h 77% 0 mm WeatherDisplay:10.37 W/m2 BKN
13:00 26.8 °C 22.4 °C 1018.5 hPa WNW 14.5 km/h 14.5 km/h 77% 0 mm WeatherDisplay:10.37 W/m2 BKN
13:05 26.7 °C 22.5 °C 1018.5 hPa WNW 14.5 km/h 14.5 km/h 78% 0 mm WeatherDisplay:10.37 W/m2 BKN
13:10 26.6 °C 22.1 °C 1018.5 hPa WNW 14.5 km/h 14.5 km/h 76% 0 mm WeatherDisplay:10.37 W/m2 BKN
13:15 26.6 °C 22.1 °C 1018.5 hPa WNW 14.5 km/h 14.5 km/h 76% 0 mm WeatherDisplay:10.37 W/m2 BKN
13:20 26.6 °C 22.2 °C 1018.5 hPa WNW 14.5 km/h 14.5 km/h 77% 0 mm WeatherDisplay:10.37 W/m2 BKN
13:25 26.4 °C 22.1 °C 1018.5 hPa WNW 14.5 km/h 14.5 km/h 77% 0 mm WeatherDisplay:10.37 W/m2 BKN
13:30 26.4 °C 21.9 °C 1018.5 hPa WNW 14.5 km/h 14.5 km/h 76% 0 mm WeatherDisplay:10.37 W/m2 BKN
13:35 26.6 °C 22.4 °C 1018.2 hPa WNW 14.5 km/h 14.5 km/h 78% 0 mm WeatherDisplay:10.37 W/m2 BKN
13:40 26.7 °C 22.3 °C 1018.2 hPa WNW 14.5 km/h 14.5 km/h 77% 0 mm WeatherDisplay:10.37 W/m2 BKN
13:45 26.8 °C 22.2 °C 1018.2 hPa WNW 14.5 km/h 14.5 km/h 76% 0 mm WeatherDisplay:10.37 W/m2 BKN
13:50 26.9 °C 21.7 °C 1018.2 hPa WNW 14.5 km/h 14.5 km/h 73% 0 mm WeatherDisplay:10.37 W/m2 BKN
13:55 27.3 °C 21.8 °C 1018.2 hPa WNW 14.5 km/h 14.5 km/h 72% 0 mm WeatherDisplay:10.37 W/m2 BKN
14:00 27.6 °C 22.1 °C 1018.2 hPa WNW 14.5 km/h 14.5 km/h 72% 0 mm WeatherDisplay:10.37 W/m2 BKN
14:05 27.4 °C 22.3 °C 1018.2 hPa WNW 14.5 km/h 14.5 km/h 74% 0 mm WeatherDisplay:10.37 W/m2 BKN
14:10 27.6 °C 22.3 °C 1018.2 hPa WNW 14.5 km/h 14.5 km/h 73% 0 mm WeatherDisplay:10.37 W/m2 BKN
14:15 27.6 °C 22.1 °C 1017.8 hPa WNW 12.9 km/h 14.5 km/h 72% 0 mm WeatherDisplay:10.37 W/m2 BKN
14:20 27.7 °C 21.9 °C 1017.8 hPa WNW 12.9 km/h 12.9 km/h 71% 0 mm WeatherDisplay:10.37 W/m2 BKN
14:25 27.9 °C 22.2 °C 1017.8 hPa WNW 12.9 km/h 12.9 km/h 71% 0 mm WeatherDisplay:10.37 W/m2 BKN
14:30 28.2 °C 22.2 °C 1017.8 hPa WNW 12.9 km/h 12.9 km/h 70% 0 mm WeatherDisplay:10.37 W/m2 BKN
14:35 28.3 °C 22.1 °C 1017.8 hPa WNW 12.9 km/h 12.9 km/h 69% 0 mm WeatherDisplay:10.37 W/m2 BKN
14:40 28.3 °C 21.8 °C 1017.5 hPa WNW 12.9 km/h 12.9 km/h 68% 0 mm WeatherDisplay:10.37 W/m2 BKN
14:45 28.4 °C 21.9 °C 1017.5 hPa WNW 12.9 km/h 12.9 km/h 68% 0 mm WeatherDisplay:10.37 W/m2 BKN
14:50 28.6 °C 22.1 °C 1017.5 hPa WNW 12.9 km/h 12.9 km/h 68% 0 mm WeatherDisplay:10.37 W/m2 BKN
14:55 28.4 °C 21.9 °C 1017.5 hPa WNW 12.9 km/h 12.9 km/h 68% 0 mm WeatherDisplay:10.37 W/m2 BKN
15:00 28 °C 22.3 °C 1017.5 hPa WNW 12.9 km/h 12.9 km/h 71% 0 mm WeatherDisplay:10.37 W/m2 BKN
15:05 27.7 °C 22.2 °C 1017.5 hPa WNW 12.9 km/h 12.9 km/h 72% 0 mm WeatherDisplay:10.37 W/m2 BKN
15:10 27.6 °C 22.1 °C 1017.5 hPa WNW 12.9 km/h 12.9 km/h 72% 0 mm WeatherDisplay:10.37 W/m2 BKN
15:15 27.7 °C 22.4 °C 1017.5 hPa WNW 11.3 km/h 12.9 km/h 73% 0 mm WeatherDisplay:10.37 W/m2 BKN
15:25 27.7 °C 22 °C 1017.5 hPa WNW 11.3 km/h 11.3 km/h 71% 0 mm WeatherDisplay:10.37 W/m2 BKN
15:30 27.6 °C 21.8 °C 1017.2 hPa WNW 11.3 km/h 11.3 km/h 71% 0 mm WeatherDisplay:10.37 W/m2 BKN
15:35 27.6 °C 21.3 °C 1017.2 hPa WNW 11.3 km/h 11.3 km/h 69% 0 mm WeatherDisplay:10.37 W/m2 BKN
15:40 27.6 °C 21.4 °C 1017.2 hPa WNW 11.3 km/h 11.3 km/h 69% 0 mm WeatherDisplay:10.37 W/m2 BKN
15:45 27.6 °C 21.4 °C 1017.2 hPa WNW 11.3 km/h 11.3 km/h 69% 0 mm WeatherDisplay:10.37 W/m2 BKN
15:50 27.6 °C 21.2 °C 1017.2 hPa WNW 11.3 km/h 11.3 km/h 68% 0 mm WeatherDisplay:10.37 W/m2 BKN
15:55 27.6 °C 21.7 °C 1017.2 hPa WNW 11.3 km/h 11.3 km/h 70% 0 mm WeatherDisplay:10.37 W/m2 BKN
16:00 27.7 °C 21.4 °C 1017.2 hPa WNW 11.3 km/h 11.3 km/h 69% 0 mm WeatherDisplay:10.37 W/m2 BKN
16:05 27.7 °C 21.3 °C 1017.2 hPa WNW 11.3 km/h 11.3 km/h 68% 0 mm WeatherDisplay:10.37 W/m2 BKN
16:10 27.8 °C 21.2 °C 1017.2 hPa WNW 11.3 km/h 11.3 km/h 67% 0 mm WeatherDisplay:10.37 W/m2 BKN
16:15 27.9 °C 21.7 °C 1017.2 hPa WNW 14.5 km/h 14.5 km/h 69% 0 mm WeatherDisplay:10.37 W/m2 SCT
16:20 27.9 °C 21.2 °C 1017.2 hPa WNW 14.5 km/h 14.5 km/h 67% 0 mm WeatherDisplay:10.37 W/m2 SCT
16:25 27.8 °C 21.4 °C 1017.2 hPa WNW 14.5 km/h 14.5 km/h 68% 0 mm WeatherDisplay:10.37 W/m2 SCT
16:30 27.9 °C 21.7 °C 1017.2 hPa WNW 14.5 km/h 14.5 km/h 69% 0 mm WeatherDisplay:10.37 W/m2 SCT
16:35 27.9 °C 21.7 °C 1017.2 hPa WNW 14.5 km/h 14.5 km/h 69% 0 mm WeatherDisplay:10.37 W/m2 SCT
16:40 27.9 °C 21.9 °C 1016.8 hPa WNW 14.5 km/h 14.5 km/h 70% 0 mm WeatherDisplay:10.37 W/m2 SCT
16:45 27.8 °C 22.1 °C 1016.8 hPa WNW 14.5 km/h 14.5 km/h 71% 0 mm WeatherDisplay:10.37 W/m2 SCT
16:50 27.8 °C 21.8 °C 1016.8 hPa WNW 14.5 km/h 14.5 km/h 70% 0 mm WeatherDisplay:10.37 W/m2 SCT
16:55 27.8 °C 21.8 °C 1016.8 hPa WNW 14.5 km/h 14.5 km/h 70% 0 mm WeatherDisplay:10.37 W/m2 SCT
17:05 27.8 °C 22.1 °C 1016.8 hPa WNW 14.5 km/h 14.5 km/h 71% 0 mm WeatherDisplay:10.37 W/m2 SCT
17:15 27.7 °C 22.2 °C 1016.8 hPa WNW 12.9 km/h 14.5 km/h 72% 0 mm WeatherDisplay:10.37 W/m2 SCT
17:20 27.6 °C 21.8 °C 1016.8 hPa West 12.9 km/h 12.9 km/h 71% 0 mm WeatherDisplay:10.37 W/m2 SCT
17:25 27.4 °C 21.7 °C 1016.8 hPa West 12.9 km/h 12.9 km/h 71% 0 mm WeatherDisplay:10.37 W/m2 SCT
17:30 27.3 °C 21.8 °C 1016.8 hPa West 12.9 km/h 12.9 km/h 72% 0 mm WeatherDisplay:10.37 W/m2 SCT
17:35 27.2 °C 22.2 °C 1016.8 hPa West 12.9 km/h 12.9 km/h 74% 0 mm WeatherDisplay:10.37 W/m2 SCT
17:40 27.1 °C 22 °C 1016.8 hPa West 12.9 km/h 12.9 km/h 74% 0 mm WeatherDisplay:10.37 W/m2 SCT
17:45 26.9 °C 22.3 °C 1016.8 hPa West 12.9 km/h 12.9 km/h 76% 0 mm WeatherDisplay:10.37 W/m2 SCT
17:50 26.8 °C 22.2 °C 1016.8 hPa West 12.9 km/h 12.9 km/h 76% 0 mm WeatherDisplay:10.37 W/m2 SCT
17:55 26.7 °C 22.3 °C 1016.8 hPa West 12.9 km/h 12.9 km/h 77% 0 mm WeatherDisplay:10.37 W/m2 SCT
18:00 26.5 °C 22.1 °C 1016.8 hPa West 12.9 km/h 12.9 km/h 77% 0 mm WeatherDisplay:10.37 W/m2 SCT
18:05 26.3 °C 22.2 °C 1016.8 hPa West 12.9 km/h 12.9 km/h 78% 0 mm WeatherDisplay:10.37 W/m2 SCT
18:10 26.3 °C 22.3 °C 1016.8 hPa West 12.9 km/h 12.9 km/h 79% 0 mm WeatherDisplay:10.37 W/m2 SCT
18:15 26.1 °C 22.2 °C 1016.8 hPa West 11.3 km/h 12.9 km/h 79% 0 mm WeatherDisplay:10.37 W/m2 FEW
18:20 26.1 °C 22.1 °C 1016.8 hPa West 11.3 km/h 11.3 km/h 79% 0 mm WeatherDisplay:10.37 W/m2 FEW
18:25 25.8 °C 22.2 °C 1016.8 hPa West 11.3 km/h 11.3 km/h 80% 0 mm WeatherDisplay:10.37 W/m2 FEW
18:30 25.7 °C 22.2 °C 1016.8 hPa West 11.3 km/h 11.3 km/h 81% 0 mm WeatherDisplay:10.37 W/m2 FEW
18:40 25.4 °C 22.1 °C 1016.8 hPa West 11.3 km/h 11.3 km/h 82% 0 mm WeatherDisplay:10.37 W/m2 FEW
18:45 25.2 °C 21.9 °C 1016.8 hPa West 11.3 km/h 11.3 km/h 82% 0 mm WeatherDisplay:10.37 W/m2 FEW
18:50 25.1 °C 22 °C 1016.8 hPa West 11.3 km/h 11.3 km/h 83% 0 mm WeatherDisplay:10.37 W/m2 FEW
18:55 24.9 °C 22.1 °C 1016.8 hPa West 11.3 km/h 11.3 km/h 84% 0 mm WeatherDisplay:10.37 W/m2 FEW
19:00 24.8 °C 21.9 °C 1016.8 hPa West 11.3 km/h 11.3 km/h 84% 0 mm WeatherDisplay:10.37 W/m2 FEW
19:05 24.7 °C 21.8 °C 1016.8 hPa West 11.3 km/h 11.3 km/h 84% 0 mm WeatherDisplay:10.37 W/m2 FEW
19:10 24.6 °C 21.7 °C 1017.2 hPa West 11.3 km/h 11.3 km/h 84% 0 mm WeatherDisplay:10.37 W/m2 FEW
19:15 24.5 °C 21.8 °C 1017.2 hPa West 9.7 km/h 11.3 km/h 85% 0 mm WeatherDisplay:10.37 W/m2 SCT
19:20 24.4 °C 21.7 °C 1017.2 hPa West 9.7 km/h 9.7 km/h 85% 0 mm WeatherDisplay:10.37 W/m2 SCT
19:25 24.3 °C 21.7 °C 1017.2 hPa West 9.7 km/h 9.7 km/h 85% 0 mm WeatherDisplay:10.37 W/m2 SCT
19:30 24.2 °C 21.6 °C 1017.2 hPa West 9.7 km/h 9.7 km/h 85% 0 mm WeatherDisplay:10.37 W/m2 SCT
19:40 24.1 °C 21.6 °C 1017.2 hPa West 9.7 km/h 9.7 km/h 86% 0 mm WeatherDisplay:10.37 W/m2 SCT
19:45 24 °C 21.5 °C 1017.2 hPa West 9.7 km/h 9.7 km/h 86% 0 mm WeatherDisplay:10.37 W/m2 SCT
19:50 23.9 °C 21.4 °C 1017.2 hPa West 9.7 km/h 9.7 km/h 86% 0 mm WeatherDisplay:10.37 W/m2 SCT
19:55 23.8 °C 21.3 °C 1017.2 hPa West 9.7 km/h 9.7 km/h 86% 0 mm WeatherDisplay:10.37 W/m2 SCT
20:00 23.8 °C 21.5 °C 1017.2 hPa West 9.7 km/h 9.7 km/h 87% 0 mm WeatherDisplay:10.37 W/m2 SCT
20:05 23.7 °C 21.2 °C 1017.5 hPa West 9.7 km/h 9.7 km/h 86% 0 mm WeatherDisplay:10.37 W/m2 SCT
20:10 23.7 °C 21.4 °C 1017.2 hPa West 9.7 km/h 9.7 km/h 87% 0 mm WeatherDisplay:10.37 W/m2 SCT
20:15 23.6 °C 21.3 °C 1017.2 hPa West 8 km/h 9.7 km/h 87% 0 mm WeatherDisplay:10.37 W/m2 FEW
20:20 23.6 °C 21.3 °C 1017.2 hPa West 8 km/h 8 km/h 87% 0 mm WeatherDisplay:10.37 W/m2 FEW
20:30 23.5 °C 21.2 °C 1017.2 hPa West 8 km/h 8 km/h 87% 0 mm WeatherDisplay:10.37 W/m2 FEW
20:35 23.4 °C 21.1 °C 1017.2 hPa West 8 km/h 8 km/h 87% 0 mm WeatherDisplay:10.37 W/m2 FEW
20:40 23.3 °C 21.1 °C 1017.2 hPa West 8 km/h 8 km/h 87% 0 mm WeatherDisplay:10.37 W/m2 FEW
20:45 23.2 °C 20.9 °C 1017.2 hPa West 8 km/h 8 km/h 87% 0 mm WeatherDisplay:10.37 W/m2 FEW
20:50 23.1 °C 21.1 °C 1017.2 hPa West 8 km/h 8 km/h 88% 0 mm WeatherDisplay:10.37 W/m2 FEW
20:55 23.1 °C 20.9 °C 1017.2 hPa West 8 km/h 8 km/h 88% 0 mm WeatherDisplay:10.37 W/m2 FEW
21:00 23 °C 20.9 °C 1017.2 hPa West 8 km/h 8 km/h 88% 0 mm WeatherDisplay:10.37 W/m2 FEW
21:05 22.9 °C 21 °C 1017.2 hPa West 8 km/h 8 km/h 89% 0 mm WeatherDisplay:10.37 W/m2 FEW
21:10 22.8 °C 20.9 °C 1017.2 hPa West 8 km/h 8 km/h 89% 0 mm WeatherDisplay:10.37 W/m2 FEW
21:15 22.8 °C 20.8 °C 1017.5 hPa West 1.6 km/h 8 km/h 89% 0 mm WeatherDisplay:10.37 W/m2 FEW
21:20 22.7 °C 21 °C 1017.5 hPa WSW 1.6 km/h 1.6 km/h 90% 0 mm WeatherDisplay:10.37 W/m2 FEW
21:25 22.7 °C 21 °C 1017.5 hPa WSW 1.6 km/h 1.6 km/h 90% 0 mm WeatherDisplay:10.37 W/m2 FEW
21:30 22.7 °C 21 °C 1017.5 hPa WSW 1.6 km/h 1.6 km/h 90% 0 mm WeatherDisplay:10.37 W/m2 FEW
21:35 22.7 °C 20.9 °C 1017.5 hPa WSW 1.6 km/h 1.6 km/h 90% 0 mm WeatherDisplay:10.37 W/m2 FEW
21:40 22.6 °C 20.9 °C 1017.5 hPa WSW 1.6 km/h 1.6 km/h 90% 0 mm WeatherDisplay:10.37 W/m2 FEW
21:45 22.6 °C 20.8 °C 1017.5 hPa WSW 1.6 km/h 1.6 km/h 90% 0 mm WeatherDisplay:10.37 W/m2 FEW
21:50 22.4 °C 20.7 °C 1017.8 hPa WSW 1.6 km/h 1.6 km/h 90% 0 mm WeatherDisplay:10.37 W/m2 FEW
21:55 22.4 °C 20.7 °C 1017.8 hPa WSW 1.6 km/h 1.6 km/h 90% 0 mm WeatherDisplay:10.37 W/m2 FEW
22:00 22.3 °C 20.6 °C 1017.8 hPa WSW 1.6 km/h 1.6 km/h 90% 0 mm WeatherDisplay:10.37 W/m2 FEW
22:05 22.3 °C 20.8 °C 1017.8 hPa WSW 1.6 km/h 1.6 km/h 91% 0 mm WeatherDisplay:10.37 W/m2 FEW
22:10 22.3 °C 20.8 °C 1017.8 hPa WSW 1.6 km/h 1.6 km/h 91% 0 mm WeatherDisplay:10.37 W/m2 FEW
22:15 22.3 °C 20.7 °C 1017.8 hPa WSW 1.6 km/h 1.6 km/h 91% 0 mm WeatherDisplay:10.37 W/m2 FEW
22:25 22.3 °C 20.7 °C 1017.8 hPa WSW 1.6 km/h 1.6 km/h 91% 0 mm WeatherDisplay:10.37 W/m2 FEW
22:30 22.3 °C 20.7 °C 1017.8 hPa WSW 1.6 km/h 1.6 km/h 91% 0 mm WeatherDisplay:10.37 W/m2 FEW
22:40 22.2 °C 20.6 °C 1017.8 hPa WSW 1.6 km/h 1.6 km/h 91% 0 mm WeatherDisplay:10.37 W/m2 FEW
22:45 22.1 °C 20.6 °C 1017.8 hPa WSW 1.6 km/h 1.6 km/h 91% 0 mm WeatherDisplay:10.37 W/m2 FEW
22:50 22.1 °C 20.6 °C 1017.8 hPa WSW 1.6 km/h 1.6 km/h 91% 0 mm WeatherDisplay:10.37 W/m2 FEW
22:55 22.1 °C 20.6 °C 1017.8 hPa WSW 1.6 km/h 1.6 km/h 91% 0 mm WeatherDisplay:10.37 W/m2 FEW
23:00 22.1 °C 20.5 °C 1017.8 hPa WSW 1.6 km/h 1.6 km/h 91% 0 mm WeatherDisplay:10.37 W/m2 FEW
23:10 22 °C 20.4 °C 1017.8 hPa WSW 1.6 km/h 1.6 km/h 91% 0 mm WeatherDisplay:10.37 W/m2 FEW
23:15 22 °C 20.4 °C 1017.8 hPa WSW 1.6 km/h 1.6 km/h 91% 0 mm WeatherDisplay:10.37 W/m2 FEW
23:20 21.9 °C 20.4 °C 1017.8 hPa WSW 1.6 km/h 1.6 km/h 91% 0 mm WeatherDisplay:10.37 W/m2 FEW
23:25 21.9 °C 20.6 °C 1017.8 hPa WSW 1.6 km/h 1.6 km/h 92% 0 mm WeatherDisplay:10.37 W/m2 FEW
23:30 21.9 °C 20.6 °C 1017.8 hPa WSW 1.6 km/h 1.6 km/h 92% 0 mm WeatherDisplay:10.37 W/m2 FEW
23:35 21.9 °C 20.6 °C 1017.8 hPa WSW 1.6 km/h 1.6 km/h 92% 0 mm WeatherDisplay:10.37 W/m2 FEW
23:40 21.8 °C 20.3 °C 1017.8 hPa WSW 1.6 km/h 1.6 km/h 91% 0 mm WeatherDisplay:10.37 W/m2 FEW
23:45 21.8 °C 20.4 °C 1017.8 hPa WSW 1.6 km/h 1.6 km/h 92% 0 mm WeatherDisplay:10.37 W/m2 FEW
23:50 21.8 °C 20.4 °C 1017.8 hPa WSW 1.6 km/h 1.6 km/h 92% 0 mm WeatherDisplay:10.37 W/m2 FEW
23:55 21.8 °C 20.4 °C 1017.8 hPa WSW 1.6 km/h 1.6 km/h 92% 0 mm WeatherDisplay:10.37 W/m2 FEW
Piedmont Bend
Compliments of Weather Underground - 4 mb